Flight Track Log - Related Links

Times and Time Zones

All times are in EST time to prevent confusion due to time zone crossing. See the N449ND flight status page for this flight to view local times or setup timezone preferences in your user account.

Time Position Orientation Groundspeed Altitude Reporting Facility
EST Latitude Longitude Course Direction KTS MPH feet Rate Location/Type
Thu 02:26:38 PM 27.4981 -80.3686 152° Southeast 101 116 500  Level Miami Center
Thu 02:27:38 PM 27.4953 -80.3872 260° West 73 84 1,000 500 Climbing Miami Center
Thu 02:28:38 PM 27.4950 -80.4036 269° West 62 71 1,500 1,000 Climbing Miami Center
Thu 02:29:38 PM 27.4944 -80.4225 268° West 62 71 3,000 750 Climbing Miami Center
Thu 02:30:38 PM 27.4922 -80.4342 258° West 62 71 3,000  Level Miami Center
Thu 02:31:00 PM 27.4975 -80.3726 152° Southeast  Level Estimated
Thu 02:31:38 PM 27.4836 -80.4386 205° Southwest 49 56 3,000  Level Miami Center
Thu 02:32:38 PM 27.4617 -80.3981 121° Southeast 101 116 3,000 50 Level Miami Center
Thu 02:33:38 PM 27.4439 -80.3647 121° Southeast 137 158 3,100  Climbing Miami Center
Thu 02:34:38 PM 27.4217 -80.3289 125° Southeast 137 158 3,000 -100 Descending Miami Center
Thu 02:35:38 PM 27.4058 -80.2958 118° Southeast 137 158 2,900  Descending Miami Center
Thu 02:36:38 PM 27.3858 -80.2600 122° Southeast 137 158 3,000 50 Climbing Miami Center
Thu 02:37:38 PM 27.3636 -80.2219 123° Southeast 137 158 3,000  Level Miami Center
Thu 02:38:38 PM 27.3561 -80.1867 103° East 122 140 3,000 -150 Level Miami Center
Thu 02:39:38 PM 27.3875 -80.1828 North 79 91 2,700 -350 Descending Miami Center
Thu 02:40:38 PM 27.4169 -80.1719 18° North 109 125 2,300 -350 Descending Miami Center
Thu 02:41:38 PM 27.4525 -80.1683 North 109 125 2,000 -250 Descending Miami Center
Thu 02:42:38 PM 27.4583 -80.1919 286° West 71 82 1,800 -150 Descending Miami Center
Thu 02:43:38 PM 27.4639 -80.2203 282° West 87 100 1,700 -100 Descending Miami Center
Thu 02:44:38 PM 27.4697 -80.2414 287° West 87 100 1,600  Descending Miami Center
Thu 02:45:38 PM 27.4775 -80.2650 290° West 82 94 1,700 -250 Climbing Miami Center
Thu 02:46:38 PM 27.4831 -80.2911 283° West 77 89 1,100 -400 Descending Miami Center
Thu 02:47:38 PM 27.4869 -80.3097 283° West 71 82 900 -300 Descending Miami Center
Thu 02:48:38 PM 27.4928 -80.3286 289° West 71 82 500 -250 Descending Miami Center
Thu 02:49:38 PM 27.4964 -80.3453 284° West 71 82 400 1,250 Descending Miami Center
Thu 02:50:38 PM 27.4919 -80.3614 253° West 65 75 3,000 650 Climbing Miami Center
Thu 02:51:38 PM 27.4728 -80.3750 212° Southwest 71 82 1,700 500 Descending Miami Center
Thu 02:52:38 PM 27.4581 -80.3814 201° Southwest 81 93 4,000 550 Climbing Miami Center
Thu 02:53:38 PM 27.4369 -80.3903 200° South 96 110 2,800 -250 Descending Miami Center
Thu 02:54:38 PM 27.4225 -80.3803 148° Southeast 74 85 3,500 600 Climbing Miami Center
Thu 02:55:38 PM 27.4397 -80.3553 52° Northeast 64 74 4,000 250 Climbing Miami Center
Thu 02:56:38 PM 27.4594 -80.3183 59° Northeast 106 122 4,000 -100 Level Miami Center
Thu 02:57:38 PM 27.4792 -80.2814 59° Northeast 122 140 3,800 -400 Descending Miami Center
Thu 02:58:38 PM 27.5028 -80.2589 40° Northeast 128 147 3,200 -400 Descending Miami Center
Thu 02:59:38 PM 27.5303 -80.2408 30° Northeast 120 138 3,000 -150 Descending Miami Center
Thu 03:00:38 PM 27.5600 -80.2206 31° Northeast 114 131 2,900  Descending Miami Center
Thu 03:01:38 PM 27.5828 -80.2261 348° North 88 101 3,000 -350 Climbing Miami Center
Thu 03:02:38 PM 27.5947 -80.2497 300° West 74 85 2,200 -550 Descending Miami Center
Thu 03:03:38 PM 27.6025 -80.2711 292° West 91 105 1,900 -200 Descending Miami Center
Thu 03:04:38 PM 27.6125 -80.2972 293° West 91 105 1,800 -200 Descending Miami Center
Thu 03:05:38 PM 27.6222 -80.3233 293° West 86 99 1,500 -500 Descending Miami Center
Thu 03:06:38 PM 27.6300 -80.3447 292° West 81 93 800 -500 Descending Miami Center
Thu 03:07:38 PM 27.6358 -80.3636 289° West 81 93 500 -300 Descending Miami Center

Login

Don't have an account? Register now (free) for customized features, flight alerts, and more!